Time;durP1;ratioP1;P1;durP2;ratioP2;P2;SDS_P1;SDS_P2;PMS_P1;PMS_P2;Temp;Humidity;BMP_temperature;BMP_pressure;BME280_temperature;BME280_humidity;BME280_pressure;Samples;Min_cycle;Max_cycle;Signal;HPM_P1;HPM_P2
2021/12/06 00:02:01;;;;;;;178.75;33.55;;;;;;;;;;8464810;28;20133;-76
2021/12/06 00:06:05;;;;;;;143.68;31.15;;;;;;;;;;8464572;28;20047;-74
2021/12/06 00:10:10;;;;;;;160.15;31.95;;;;;;;;;;8464713;28;20096;-73
2021/12/06 00:14:13;;;;;;;181.20;34.10;;;;;;;;;;8464532;28;20122;-72
2021/12/06 00:18:16;;;;;;;170.35;34.05;;;;;;;;;;8464345;28;20047;-77
2021/12/06 00:22:23;;;;;;;190.43;35.33;;;;;;;;;;8464373;28;20093;-75
2021/12/06 00:26:26;;;;;;;205.15;32.83;;;;;;;;;;8464111;28;20043;-74
2021/12/06 00:30:29;;;;;;;155.13;32.70;;;;;;;;;;8464568;28;20071;-74
2021/12/06 00:34:34;;;;;;;177.32;30.27;;;;;;;;;;8463960;28;20054;-75
2021/12/06 00:38:38;;;;;;;160.68;31.60;;;;;;;;;;8463969;28;20043;-77
2021/12/06 00:42:42;;;;;;;188.43;33.05;;;;;;;;;;8463675;28;20113;-73
2021/12/06 00:46:44;;;;;;;194.73;34.45;;;;;;;;;;8463891;28;20044;-75
2021/12/06 00:50:48;;;;;;;176.63;34.13;;;;;;;;;;8463758;28;20043;-74
2021/12/06 00:54:53;;;;;;;152.15;32.08;;;;;;;;;;8464190;28;20134;-75
2021/12/06 00:58:56;;;;;;;161.68;31.05;;;;;;;;;;8463692;28;20093;-75
2021/12/06 01:02:59;;;;;;;153.55;31.08;;;;;;;;;;8463981;28;20047;-73
2021/12/06 01:07:03;;;;;;;160.93;32.25;;;;;;;;;;8463509;28;20051;-74
2021/12/06 01:11:09;;;;;;;173.60;35.30;;;;;;;;;;8463498;28;20107;-75
2021/12/06 01:15:13;;;;;;;220.05;48.95;;;;;;;;;;8463950;28;20058;-75
2021/12/06 01:19:16;;;;;;;208.20;36.53;;;;;;;;;;8463427;28;20071;-75
2021/12/06 01:23:22;;;;;;;166.93;37.17;;;;;;;;;;8465009;28;20040;-73
2021/12/06 01:27:46;;;;;;;244.07;47.58;;;;;;;;;;8469875;28;20512;-75
2021/12/06 01:31:56;;;;;;;180.38;35.50;;;;;;;;;;8469749;28;20055;-74
2021/12/06 01:40:21;;;;;;;162.18;31.77;;;;;;;;;;8469291;28;20092;-76
2021/12/06 01:44:27;;;;;;;199.43;34.42;;;;;;;;;;8470041;28;20043;-74
2021/12/06 01:48:31;;;;;;;262.15;36.63;;;;;;;;;;8469152;28;20043;-73
2021/12/06 01:52:36;;;;;;;163.77;32.33;;;;;;;;;;8469490;28;20043;-75
2021/12/06 01:56:39;;;;;;;170.95;32.70;;;;;;;;;;8468068;28;20134;-76
2021/12/06 02:00:47;;;;;;;200.45;38.08;;;;;;;;;;8468743;28;20092;-76
2021/12/06 02:04:50;;;;;;;202.07;38.28;;;;;;;;;;8468621;28;20044;-76
2021/12/06 02:08:54;;;;;;;166.82;33.35;;;;;;;;;;8468460;28;20051;-74
2021/12/06 02:12:57;;;;;;;164.65;33.88;;;;;;;;;;8468825;28;20539;-73
2021/12/06 02:17:09;;;;;;;193.88;40.33;;;;;;;;;;8468249;28;20063;-76
2021/12/06 02:21:28;;;;;;;173.98;34.05;;;;;;;;;;8468240;28;20506;-74
2021/12/06 02:25:31;;;;;;;183.73;37.92;;;;;;;;;;8467890;28;20414;-74
2021/12/06 02:29:35;;;;;;;177.70;31.77;;;;;;;;;;8467789;28;20055;-75
2021/12/06 02:33:38;;;;;;;168.60;32.38;;;;;;;;;;8467371;28;20042;-77
2021/12/06 02:37:43;;;;;;;182.57;31.38;;;;;;;;;;8468093;28;20089;-75
2021/12/06 02:41:46;;;;;;;136.65;34.63;;;;;;;;;;8467243;28;20055;-75
2021/12/06 02:45:50;;;;;;;169.68;32.65;;;;;;;;;;8467740;28;20104;-77
2021/12/06 02:49:53;;;;;;;159.73;33.80;;;;;;;;;;8465495;28;20196;-76
2021/12/06 02:53:58;;;;;;;176.82;40.90;;;;;;;;;;8466943;28;20051;-76
2021/12/06 02:58:13;;;;;;;147.05;35.28;;;;;;;;;;8464782;28;20047;-74
2021/12/06 03:02:18;;;;;;;151.10;34.00;;;;;;;;;;8454674;28;20047;-76
2021/12/06 03:06:21;;;;;;;186.52;38.88;;;;;;;;;;8461073;28;20071;-76
2021/12/06 03:10:27;;;;;;;183.20;39.53;;;;;;;;;;8466965;28;20074;-77
2021/12/06 03:14:32;;;;;;;171.43;33.63;;;;;;;;;;8466378;28;20044;-76
2021/12/06 03:18:36;;;;;;;159.18;31.55;;;;;;;;;;8466281;28;20043;-74
2021/12/06 03:22:39;;;;;;;151.32;33.95;;;;;;;;;;8466060;28;20054;-75
2021/12/06 03:26:45;;;;;;;140.90;32.65;;;;;;;;;;8465812;28;20074;-74
2021/12/06 03:30:50;;;;;;;125.60;31.63;;;;;;;;;;8466453;28;20479;-74
2021/12/06 03:34:53;;;;;;;136.90;33.25;;;;;;;;;;8465795;28;20162;-76
2021/12/06 03:38:57;;;;;;;134.05;30.67;;;;;;;;;;8466078;28;20062;-76
2021/12/06 03:43:02;;;;;;;152.52;31.23;;;;;;;;;;8465367;28;20487;-75
2021/12/06 03:47:08;;;;;;;122.68;30.38;;;;;;;;;;8464504;28;20043;-76
2021/12/06 03:51:11;;;;;;;110.00;28.02;;;;;;;;;;8465288;28;20042;-75
2021/12/06 03:55:14;;;;;;;108.68;27.08;;;;;;;;;;8465080;28;20131;-74
2021/12/06 03:59:20;;;;;;;118.00;30.13;;;;;;;;;;8464911;28;20085;-75
2021/12/06 04:03:24;;;;;;;100.10;27.20;;;;;;;;;;8464803;28;20384;-77
2021/12/06 04:07:28;;;;;;;120.15;28.23;;;;;;;;;;8464587;28;20055;-76
2021/12/06 04:11:31;;;;;;;100.38;28.33;;;;;;;;;;8464605;28;20051;-74
2021/12/06 04:15:37;;;;;;;118.63;30.50;;;;;;;;;;8464501;28;20051;-75
2021/12/06 04:19:40;;;;;;;109.25;28.58;;;;;;;;;;8464484;28;20040;-75
2021/12/06 04:23:44;;;;;;;118.32;31.15;;;;;;;;;;8464727;28;20047;-74
2021/12/06 04:27:53;;;;;;;108.60;27.17;;;;;;;;;;8464765;28;20131;-74
2021/12/06 04:31:58;;;;;;;134.30;36.17;;;;;;;;;;8464144;28;20047;-76
2021/12/06 04:36:01;;;;;;;97.82;27.58;;;;;;;;;;8464590;28;20540;-74
2021/12/06 04:40:05;;;;;;;116.53;30.75;;;;;;;;;;8463786;28;20096;-73
2021/12/06 04:44:08;;;;;;;133.02;36.78;;;;;;;;;;8464365;28;20043;-75
2021/12/06 04:48:13;;;;;;;126.85;34.17;;;;;;;;;;8464372;28;20128;-74
2021/12/06 04:52:19;;;;;;;123.63;33.83;;;;;;;;;;8463700;28;20047;-73
2021/12/06 04:56:26;;;;;;;118.53;33.80;;;;;;;;;;8464537;28;20483;-75
2021/12/06 05:00:35;;;;;;;118.55;31.65;;;;;;;;;;8471289;28;20054;-75
2021/12/06 05:04:43;;;;;;;118.03;36.50;;;;;;;;;;8470537;28;20047;-75
2021/12/06 05:08:48;;;;;;;164.45;45.42;;;;;;;;;;8470978;28;20380;-75
2021/12/06 05:12:52;;;;;;;122.85;36.70;;;;;;;;;;8470364;28;20054;-74
2021/12/06 05:16:55;;;;;;;112.55;32.58;;;;;;;;;;8470692;28;20107;-72
2021/12/06 05:21:00;;;;;;;176.32;46.15;;;;;;;;;;8470078;28;20059;-76
2021/12/06 05:25:05;;;;;;;105.32;34.85;;;;;;;;;;8469851;28;20051;-73
2021/12/06 05:29:11;;;;;;;106.63;32.95;;;;;;;;;;8469816;28;20126;-73
2021/12/06 05:33:27;;;;;;;152.27;44.65;;;;;;;;;;8469742;28;20056;-73
2021/12/06 05:37:33;;;;;;;98.35;32.13;;;;;;;;;;8469566;28;20079;-74
2021/12/06 05:41:36;;;;;;;95.32;31.92;;;;;;;;;;8466639;28;20051;-76
2021/12/06 05:45:39;;;;;;;106.18;31.67;;;;;;;;;;8465124;28;20487;-76
2021/12/06 05:49:41;;;;;;;97.93;33.00;;;;;;;;;;8467591;28;20444;-74
2021/12/06 05:53:46;;;;;;;103.57;33.30;;;;;;;;;;8468978;28;20052;-74
2021/12/06 05:57:49;;;;;;;98.20;31.77;;;;;;;;;;8469507;28;20065;-73
2021/12/06 06:01:54;;;;;;;88.78;30.45;;;;;;;;;;8467893;28;20047;-75
2021/12/06 06:05:57;;;;;;;92.38;32.50;;;;;;;;;;8468561;28;20143;-74
2021/12/06 06:10:02;;;;;;;113.13;34.42;;;;;;;;;;8467569;28;20055;-74
2021/12/06 06:14:06;;;;;;;117.30;34.90;;;;;;;;;;8468304;28;20542;-75
2021/12/06 06:18:10;;;;;;;122.00;35.72;;;;;;;;;;8468764;28;20048;-76
2021/12/06 06:22:13;;;;;;;128.75;35.63;;;;;;;;;;8468205;28;20048;-75
2021/12/06 06:26:18;;;;;;;119.50;34.30;;;;;;;;;;8467877;28;20051;-73
2021/12/06 06:30:21;;;;;;;107.22;31.60;;;;;;;;;;8467868;28;20081;-74
2021/12/06 06:34:25;;;;;;;130.23;33.75;;;;;;;;;;8461169;28;20548;-74
2021/12/06 06:38:27;;;;;;;127.65;34.65;;;;;;;;;;8452103;28;20105;-74
2021/12/06 06:42:32;;;;;;;139.45;34.20;;;;;;;;;;8462461;28;20108;-75
2021/12/06 06:46:35;;;;;;;129.68;32.08;;;;;;;;;;8467353;28;20398;-74
2021/12/06 06:50:38;;;;;;;102.78;29.95;;;;;;;;;;8467138;28;20094;-74
2021/12/06 06:54:41;;;;;;;131.07;33.00;;;;;;;;;;8466580;28;20039;-74
2021/12/06 06:58:45;;;;;;;141.65;33.25;;;;;;;;;;8464589;28;20039;-76
2021/12/06 07:02:48;;;;;;;128.55;30.60;;;;;;;;;;8465236;28;20066;-74
2021/12/06 07:06:52;;;;;;;159.45;43.25;;;;;;;;;;8465155;28;20051;-76
2021/12/06 07:10:55;;;;;;;135.75;32.53;;;;;;;;;;8466366;28;20406;-74
2021/12/06 07:15:00;;;;;;;128.23;30.27;;;;;;;;;;8465678;28;20089;-76
2021/12/06 07:19:02;;;;;;;148.55;32.88;;;;;;;;;;8464677;28;20039;-76
2021/12/06 07:23:06;;;;;;;155.38;29.63;;;;;;;;;;8463864;28;20076;-74
2021/12/06 07:27:08;;;;;;;133.73;31.52;;;;;;;;;;8465358;28;20048;-74
2021/12/06 07:31:14;;;;;;;139.07;28.88;;;;;;;;;;8466180;28;20059;-77
2021/12/06 07:35:18;;;;;;;119.30;30.20;;;;;;;;;;8463413;28;20051;-77
2021/12/06 07:39:24;;;;;;;139.40;31.02;;;;;;;;;;8459420;28;20052;-77
2021/12/06 07:43:27;;;;;;;157.48;36.47;;;;;;;;;;8464336;28;20063;-76
2021/12/06 07:47:36;;;;;;;134.40;28.45;;;;;;;;;;8462773;28;20046;-75
2021/12/06 07:51:39;;;;;;;139.80;30.85;;;;;;;;;;8462422;28;20043;-74
2021/12/06 07:55:43;;;;;;;135.18;29.58;;;;;;;;;;8461105;28;20052;-76
2021/12/06 07:59:46;;;;;;;140.52;31.60;;;;;;;;;;8454956;28;20491;-75
2021/12/06 08:03:50;;;;;;;153.27;34.55;;;;;;;;;;8460538;28;20407;-77
2021/12/06 08:07:54;;;;;;;122.75;28.55;;;;;;;;;;8449955;28;20470;-75
2021/12/06 08:11:59;;;;;;;117.10;28.55;;;;;;;;;;8447040;28;20527;-79
2021/12/06 08:16:05;;;;;;;114.10;28.73;;;;;;;;;;8452266;28;20044;-75
2021/12/06 08:20:11;;;;;;;108.63;31.33;;;;;;;;;;8454437;28;20050;-76
2021/12/06 08:24:14;;;;;;;298.67;67.65;;;;;;;;;;8457986;28;20486;-75
2021/12/06 08:28:18;;;;;;;190.35;44.15;;;;;;;;;;8449860;28;20047;-76
2021/12/06 08:32:21;;;;;;;115.80;30.75;;;;;;;;;;8434852;28;20054;-73
2021/12/06 08:36:27;;;;;;;97.88;26.40;;;;;;;;;;8462633;28;20101;-75
2021/12/06 08:40:31;;;;;;;126.50;34.33;;;;;;;;;;8463544;28;20147;-77
2021/12/06 08:44:35;;;;;;;93.85;29.75;;;;;;;;;;8464058;28;20047;-75
2021/12/06 08:48:40;;;;;;;110.03;31.15;;;;;;;;;;8463859;28;20079;-75
2021/12/06 08:52:46;;;;;;;114.93;31.42;;;;;;;;;;8464325;28;20047;-74
2021/12/06 08:56:51;;;;;;;102.68;30.88;;;;;;;;;;8463749;28;20051;-75
2021/12/06 09:00:55;;;;;;;114.65;30.73;;;;;;;;;;8463695;28;20108;-74
2021/12/06 09:04:59;;;;;;;119.00;32.17;;;;;;;;;;8463454;28;20048;-73
2021/12/06 09:09:07;;;;;;;129.23;35.10;;;;;;;;;;8463582;28;20046;-73
2021/12/06 09:13:11;;;;;;;97.25;29.52;;;;;;;;;;8463508;28;20088;-75
2021/12/06 09:17:15;;;;;;;87.90;27.35;;;;;;;;;;8463376;28;20055;-75
2021/12/06 09:21:21;;;;;;;121.05;30.50;;;;;;;;;;8463390;28;20047;-74
2021/12/06 09:25:26;;;;;;;89.43;27.70;;;;;;;;;;8463370;28;20044;-74
2021/12/06 09:29:32;;;;;;;93.13;25.20;;;;;;;;;;8463731;28;20039;-75
2021/12/06 09:33:37;;;;;;;95.72;29.98;;;;;;;;;;8463271;28;20039;-77
2021/12/06 09:37:40;;;;;;;92.07;25.05;;;;;;;;;;8463569;28;20546;-75
2021/12/06 09:41:45;;;;;;;109.50;28.67;;;;;;;;;;8462765;28;20526;-74
2021/12/06 09:45:49;;;;;;;136.30;42.42;;;;;;;;;;8467455;28;20047;-75
2021/12/06 09:49:52;;;;;;;79.13;25.67;;;;;;;;;;8469158;28;20411;-77
2021/12/06 09:53:58;;;;;;;78.80;23.70;;;;;;;;;;8469560;28;20043;-75
2021/12/06 09:58:05;;;;;;;79.20;24.05;;;;;;;;;;8469459;28;20140;-74
2021/12/06 10:02:12;;;;;;;84.28;25.42;;;;;;;;;;8468737;28;20044;-75
2021/12/06 10:06:16;;;;;;;87.15;27.92;;;;;;;;;;8468512;28;20058;-74
2021/12/06 10:10:19;;;;;;;70.68;23.27;;;;;;;;;;8469063;28;20043;-75
2021/12/06 10:14:24;;;;;;;80.97;26.75;;;;;;;;;;8468468;28;20048;-75
2021/12/06 10:18:27;;;;;;;72.07;23.00;;;;;;;;;;8468855;28;20137;-76
2021/12/06 10:22:31;;;;;;;86.55;26.48;;;;;;;;;;8468702;28;20101;-74
2021/12/06 10:26:34;;;;;;;67.07;22.67;;;;;;;;;;8468425;28;20104;-74
2021/12/06 10:30:43;;;;;;;63.20;21.10;;;;;;;;;;8467931;28;20433;-76
2021/12/06 10:34:53;;;;;;;63.80;23.25;;;;;;;;;;8467921;28;20044;-73
2021/12/06 10:39:05;;;;;;;63.95;19.58;;;;;;;;;;8468195;28;20398;-74
2021/12/06 10:43:14;;;;;;;60.60;19.58;;;;;;;;;;8467404;28;20113;-75
2021/12/06 10:47:19;;;;;;;62.35;23.83;;;;;;;;;;8467400;28;20048;-76
2021/12/06 10:51:23;;;;;;;43.83;18.65;;;;;;;;;;8467729;28;20044;-76
2021/12/06 10:55:30;;;;;;;48.42;19.55;;;;;;;;;;8466931;28;20044;-74
2021/12/06 10:59:39;;;;;;;52.05;19.90;;;;;;;;;;8467540;28;20411;-75
2021/12/06 11:03:47;;;;;;;45.58;19.45;;;;;;;;;;8466989;28;20585;-75
2021/12/06 11:07:57;;;;;;;39.88;17.17;;;;;;;;;;8466749;28;20048;-74
2021/12/06 11:12:03;;;;;;;41.35;16.50;;;;;;;;;;8466602;28;20100;-76
2021/12/06 11:16:15;;;;;;;35.75;16.42;;;;;;;;;;8466933;28;20050;-74
2021/12/06 11:20:23;;;;;;;45.97;19.00;;;;;;;;;;8466538;28;20085;-74
2021/12/06 11:24:27;;;;;;;56.85;22.63;;;;;;;;;;8466168;28;20126;-74
2021/12/06 11:28:33;;;;;;;41.28;15.90;;;;;;;;;;8465952;28;20051;-73
2021/12/06 11:32:39;;;;;;;47.22;18.50;;;;;;;;;;8466913;28;20391;-74
2021/12/06 11:36:44;;;;;;;38.65;16.55;;;;;;;;;;8465744;28;20085;-76
2021/12/06 11:40:47;;;;;;;40.25;17.48;;;;;;;;;;8465455;28;20076;-72
2021/12/06 11:44:51;;;;;;;40.35;17.67;;;;;;;;;;8465484;28;20433;-73
2021/12/06 11:48:54;;;;;;;44.97;16.48;;;;;;;;;;8465259;28;20134;-74
2021/12/06 11:53:04;;;;;;;32.80;14.70;;;;;;;;;;8465250;28;20054;-74
2021/12/06 11:57:13;;;;;;;32.97;14.32;;;;;;;;;;8465670;28;20406;-76
2021/12/06 12:01:21;;;;;;;108.43;35.83;;;;;;;;;;8465504;28;20066;-75
2021/12/06 12:05:29;;;;;;;56.15;20.38;;;;;;;;;;8464763;28;20049;-74
2021/12/06 12:09:36;;;;;;;64.00;25.20;;;;;;;;;;8460860;28;20084;-76
2021/12/06 12:13:42;;;;;;;37.65;16.48;;;;;;;;;;8457196;28;20051;-76
2021/12/06 12:17:49;;;;;;;36.72;16.58;;;;;;;;;;8444387;28;20043;-74
2021/12/06 12:21:54;;;;;;;69.93;29.55;;;;;;;;;;8453929;28;20505;-74
2021/12/06 12:26:07;;;;;;;65.78;24.35;;;;;;;;;;8461720;28;20047;-74
2021/12/06 12:30:17;;;;;;;44.10;17.15;;;;;;;;;;8452698;28;20066;-74
2021/12/06 12:34:25;;;;;;;64.45;25.23;;;;;;;;;;8462681;28;20498;-74
2021/12/06 12:38:33;;;;;;;55.92;21.60;;;;;;;;;;8462833;28;20137;-74
2021/12/06 12:42:54;;;;;;;68.72;24.92;;;;;;;;;;8462804;28;20067;-76
2021/12/06 12:46:59;;;;;;;48.17;17.02;;;;;;;;;;8456753;28;20098;-74
2021/12/06 12:51:07;;;;;;;28.98;13.73;;;;;;;;;;8454878;28;20051;-74
2021/12/06 12:55:25;;;;;;;25.90;12.30;;;;;;;;;;8462597;28;20050;-74
2021/12/06 12:59:35;;;;;;;21.95;11.10;;;;;;;;;;8462614;28;20048;-73
2021/12/06 13:03:41;;;;;;;25.13;10.93;;;;;;;;;;8462193;28;20040;-74
2021/12/06 13:08:07;;;;;;;20.15;9.48;;;;;;;;;;8462386;28;20047;-74
2021/12/06 13:12:12;;;;;;;23.38;11.23;;;;;;;;;;8462338;28;20068;-74
2021/12/06 13:16:49;;;;;;;21.52;9.32;;;;;;;;;;8462015;28;20035;-76
2021/12/06 13:20:53;;;;;;;19.55;9.95;;;;;;;;;;8433643;28;20045;-75
2021/12/06 13:25:01;;;;;;;26.75;12.88;;;;;;;;;;8435266;28;20040;-76
2021/12/06 13:29:07;;;;;;;32.47;13.15;;;;;;;;;;8436496;28;20376;-75
2021/12/06 13:33:13;;;;;;;36.20;16.33;;;;;;;;;;8436082;28;20048;-76
2021/12/06 13:37:16;;;;;;;43.92;21.55;;;;;;;;;;8436393;28;20052;-76
2021/12/06 13:41:23;;;;;;;42.25;22.70;;;;;;;;;;8435878;28;20052;-75
2021/12/06 13:45:28;;;;;;;32.75;19.15;;;;;;;;;;8453132;28;20036;-76
2021/12/06 13:49:33;;;;;;;22.55;14.52;;;;;;;;;;8453584;28;20044;-73
2021/12/06 13:53:37;;;;;;;18.85;9.27;;;;;;;;;;8463152;28;20044;-76
2021/12/06 13:57:39;;;;;;;20.38;11.82;;;;;;;;;;8467917;28;20040;-77
2021/12/06 14:01:46;;;;;;;26.67;14.38;;;;;;;;;;8453138;28;20095;-76
2021/12/06 14:05:52;;;;;;;23.02;11.90;;;;;;;;;;8453963;28;20070;-76
2021/12/06 14:09:58;;;;;;;28.92;15.63;;;;;;;;;;8467416;28;20047;-76
2021/12/06 14:14:03;;;;;;;33.85;17.98;;;;;;;;;;8467314;28;20482;-73
2021/12/06 14:18:09;;;;;;;26.85;13.00;;;;;;;;;;8455931;28;20055;-75
2021/12/06 14:22:17;;;;;;;24.73;12.23;;;;;;;;;;8450743;28;20039;-75
2021/12/06 14:26:20;;;;;;;71.90;40.38;;;;;;;;;;8466757;28;20051;-76
2021/12/06 14:30:25;;;;;;;29.77;14.52;;;;;;;;;;8466231;28;20055;-74
2021/12/06 14:34:33;;;;;;;25.42;13.27;;;;;;;;;;8466694;28;20542;-74
2021/12/06 14:38:38;;;;;;;21.92;10.32;;;;;;;;;;8467162;28;20066;-74
2021/12/06 14:42:43;;;;;;;39.25;17.08;;;;;;;;;;8465969;28;20080;-75
2021/12/06 14:46:46;;;;;;;27.75;12.57;;;;;;;;;;8466747;28;20054;-77
2021/12/06 14:51:02;;;;;;;36.63;13.18;;;;;;;;;;8466584;28;20540;-75
2021/12/06 14:59:46;;;;;;;30.85;14.27;;;;;;;;;;8402702;28;20483;-73
2021/12/06 15:03:52;;;;;;;28.40;12.30;;;;;;;;;;8465801;28;20048;-76
2021/12/06 15:07:57;;;;;;;26.83;12.05;;;;;;;;;;8465473;28;20055;-74
2021/12/06 15:12:04;;;;;;;26.20;14.88;;;;;;;;;;8465813;28;20120;-75
2021/12/06 15:16:09;;;;;;;25.10;12.38;;;;;;;;;;8449070;28;20044;-75
2021/12/06 15:20:12;;;;;;;31.23;14.63;;;;;;;;;;8463983;28;20043;-73
2021/12/06 15:24:16;;;;;;;21.63;11.32;;;;;;;;;;8465409;28;20518;-76
2021/12/06 15:28:25;;;;;;;23.25;10.98;;;;;;;;;;8464911;28;20305;-75
2021/12/06 15:32:28;;;;;;;21.13;11.25;;;;;;;;;;8465015;28;20040;-74
2021/12/06 15:36:31;;;;;;;23.30;10.82;;;;;;;;;;8464582;28;20445;-73
2021/12/06 15:40:35;;;;;;;22.20;10.43;;;;;;;;;;8453499;28;20055;-74
2021/12/06 15:44:42;;;;;;;23.40;12.57;;;;;;;;;;8463779;28;20126;-75
2021/12/06 15:48:46;;;;;;;24.95;11.85;;;;;;;;;;8464277;28;20039;-75
2021/12/06 15:52:52;;;;;;;25.98;11.30;;;;;;;;;;8450232;28;20500;-74
2021/12/06 15:56:58;;;;;;;25.23;12.35;;;;;;;;;;8444238;28;20044;-75
2021/12/06 16:01:09;;;;;;;22.27;11.77;;;;;;;;;;8457235;28;20043;-75
2021/12/06 16:05:15;;;;;;;23.70;11.63;;;;;;;;;;8430135;28;20507;-74
2021/12/06 16:09:18;;;;;;;30.83;13.35;;;;;;;;;;8430462;28;20047;-74
2021/12/06 16:13:24;;;;;;;44.72;17.70;;;;;;;;;;8462682;28;20092;-74
2021/12/06 16:17:36;;;;;;;37.10;14.48;;;;;;;;;;8463780;28;20059;-73
2021/12/06 16:21:39;;;;;;;120.60;40.78;;;;;;;;;;8441100;28;20047;-77
2021/12/06 16:25:47;;;;;;;39.58;15.77;;;;;;;;;;8452315;28;20450;-76
2021/12/06 16:29:53;;;;;;;59.25;21.92;;;;;;;;;;8452053;28;20040;-78
2021/12/06 16:34:00;;;;;;;49.10;19.75;;;;;;;;;;8433782;28;20504;-77
2021/12/06 16:38:19;;;;;;;40.55;17.55;;;;;;;;;;8440219;28;20044;-77
2021/12/06 16:42:33;;;;;;;35.38;16.17;;;;;;;;;;8437110;28;20514;-75
2021/12/06 16:46:41;;;;;;;32.25;14.68;;;;;;;;;;8448619;28;20131;-75
2021/12/06 16:50:50;;;;;;;28.40;14.13;;;;;;;;;;8453991;28;20388;-76
2021/12/06 16:54:58;;;;;;;37.35;17.38;;;;;;;;;;8445356;28;20109;-77
2021/12/06 16:59:13;;;;;;;40.47;19.60;;;;;;;;;;8432844;28;20048;-75
2021/12/06 17:03:19;;;;;;;29.80;14.40;;;;;;;;;;8462007;28;20150;-76
2021/12/06 17:07:32;;;;;;;43.72;18.58;;;;;;;;;;8462870;28;20088;-77
2021/12/06 17:11:38;;;;;;;39.63;17.65;;;;;;;;;;8445266;28;20052;-76
2021/12/06 17:15:42;;;;;;;40.78;18.15;;;;;;;;;;8428612;28;20419;-78
2021/12/06 17:19:46;;;;;;;48.05;19.10;;;;;;;;;;8435955;28;20058;-78
2021/12/06 17:23:54;;;;;;;44.53;18.52;;;;;;;;;;8429507;28;20048;-74
2021/12/06 17:28:14;;;;;;;40.33;17.10;;;;;;;;;;8434207;28;20048;-76
2021/12/06 17:32:18;;;;;;;42.85;19.23;;;;;;;;;;8453745;28;20039;-75
2021/12/06 17:36:25;;;;;;;57.97;23.73;;;;;;;;;;8450201;28;20074;-74
2021/12/06 17:40:29;;;;;;;50.22;20.40;;;;;;;;;;8453114;28;20056;-75
2021/12/06 17:44:34;;;;;;;34.33;14.00;;;;;;;;;;8461104;28;20483;-77
2021/12/06 17:48:42;;;;;;;39.88;17.30;;;;;;;;;;8428932;28;20135;-74
2021/12/06 17:52:45;;;;;;;59.80;24.20;;;;;;;;;;8457847;28;20523;-74
2021/12/06 17:56:53;;;;;;;46.65;17.85;;;;;;;;;;8454228;28;20065;-74
2021/12/06 18:01:00;;;;;;;50.40;18.63;;;;;;;;;;8458710;28;20040;-74
2021/12/06 18:05:08;;;;;;;76.47;26.42;;;;;;;;;;8452996;28;20625;-75
2021/12/06 18:09:14;;;;;;;55.70;20.70;;;;;;;;;;8451089;28;20089;-76
2021/12/06 18:13:20;;;;;;;50.90;19.50;;;;;;;;;;8436215;28;20044;-76
2021/12/06 18:17:23;;;;;;;35.17;15.23;;;;;;;;;;8462797;28;20051;-75
2021/12/06 18:21:29;;;;;;;41.20;16.40;;;;;;;;;;8442590;28;20068;-75
2021/12/06 18:25:38;;;;;;;67.30;23.33;;;;;;;;;;8443340;28;20672;-76
2021/12/06 18:29:52;;;;;;;59.80;21.92;;;;;;;;;;8440088;28;21093;-74
2021/12/06 18:33:57;;;;;;;73.88;28.70;;;;;;;;;;8426609;28;20127;-75
2021/12/06 18:38:02;;;;;;;103.10;29.15;;;;;;;;;;8460262;28;20052;-75
2021/12/06 18:42:06;;;;;;;57.58;20.38;;;;;;;;;;8448172;28;20518;-75
2021/12/06 18:46:15;;;;;;;58.13;21.90;;;;;;;;;;8458512;28;20043;-76
2021/12/06 18:50:20;;;;;;;128.77;37.08;;;;;;;;;;8445768;28;20057;-77
2021/12/06 18:54:24;;;;;;;85.22;25.90;;;;;;;;;;8454357;28;20040;-76
2021/12/06 18:58:28;;;;;;;93.25;32.42;;;;;;;;;;8449550;28;20119;-77
2021/12/06 19:02:33;;;;;;;64.25;20.25;;;;;;;;;;8449859;28;20039;-76
2021/12/06 19:06:36;;;;;;;63.33;19.63;;;;;;;;;;8454017;28;20094;-75
2021/12/06 19:10:41;;;;;;;52.20;18.40;;;;;;;;;;8449010;28;20078;-74
2021/12/06 19:14:47;;;;;;;68.45;22.48;;;;;;;;;;8455708;28;20127;-76
2021/12/06 19:18:54;;;;;;;78.60;24.70;;;;;;;;;;8456126;28;20036;-74
2021/12/06 19:22:57;;;;;;;49.08;17.73;;;;;;;;;;8455983;28;20072;-77
2021/12/06 19:27:05;;;;;;;49.90;19.30;;;;;;;;;;8455960;28;20127;-76
2021/12/06 19:31:10;;;;;;;58.97;21.17;;;;;;;;;;8436235;28;20199;-74
2021/12/06 19:35:15;;;;;;;49.38;19.27;;;;;;;;;;8456967;28;20453;-74
2021/12/06 19:39:18;;;;;;;59.92;21.55;;;;;;;;;;8450296;28;20086;-74
2021/12/06 19:43:27;;;;;;;81.65;25.63;;;;;;;;;;8454263;28;20406;-74
2021/12/06 19:47:30;;;;;;;76.68;25.40;;;;;;;;;;8458344;28;20079;-76
2021/12/06 19:51:35;;;;;;;102.93;32.13;;;;;;;;;;8459019;28;20051;-76
2021/12/06 19:55:41;;;;;;;67.05;22.48;;;;;;;;;;8452685;28;20047;-77
2021/12/06 19:59:45;;;;;;;84.63;25.35;;;;;;;;;;8455339;28;20047;-77
2021/12/06 20:03:50;;;;;;;84.32;26.45;;;;;;;;;;8459162;28;20070;-76
2021/12/06 20:07:55;;;;;;;81.57;24.45;;;;;;;;;;8448372;28;20070;-74
2021/12/06 20:11:58;;;;;;;89.47;27.45;;;;;;;;;;8456355;28;20069;-75
2021/12/06 20:16:01;;;;;;;73.00;22.02;;;;;;;;;;8455379;28;20039;-74
2021/12/06 20:20:08;;;;;;;90.20;24.58;;;;;;;;;;8447008;28;20410;-75
2021/12/06 20:24:13;;;;;;;101.20;30.33;;;;;;;;;;8446724;28;20118;-76
2021/12/06 20:28:20;;;;;;;81.85;26.38;;;;;;;;;;8456448;28;20035;-77
2021/12/06 20:32:23;;;;;;;68.15;24.05;;;;;;;;;;8464054;28;20050;-74
2021/12/06 20:36:27;;;;;;;64.07;23.35;;;;;;;;;;8464158;28;20146;-73
2021/12/06 20:40:31;;;;;;;58.88;19.08;;;;;;;;;;8463857;28;20138;-75
2021/12/06 20:44:35;;;;;;;80.88;29.38;;;;;;;;;;8463962;28;20064;-73
2021/12/06 20:48:40;;;;;;;55.60;21.48;;;;;;;;;;8463849;28;20054;-76
2021/12/06 20:52:43;;;;;;;77.35;25.98;;;;;;;;;;8464338;28;20654;-75
2021/12/06 20:56:48;;;;;;;81.57;29.30;;;;;;;;;;8464279;28;20048;-75
2021/12/06 21:00:53;;;;;;;74.75;24.52;;;;;;;;;;8464241;28;20067;-75
2021/12/06 21:04:57;;;;;;;64.70;19.92;;;;;;;;;;8463661;28;20044;-74
2021/12/06 21:09:00;;;;;;;58.78;19.88;;;;;;;;;;8463507;28;20131;-74
2021/12/06 21:13:18;;;;;;;56.95;20.10;;;;;;;;;;8463508;28;20055;-75
2021/12/06 21:17:24;;;;;;;65.25;22.33;;;;;;;;;;8463557;28;20044;-75
2021/12/06 21:21:29;;;;;;;66.03;23.00;;;;;;;;;;8463480;28;20483;-75
2021/12/06 21:25:32;;;;;;;61.92;22.48;;;;;;;;;;8463394;28;20047;-74
2021/12/06 21:29:37;;;;;;;68.60;25.15;;;;;;;;;;8463259;28;20437;-73
2021/12/06 21:33:43;;;;;;;69.13;21.88;;;;;;;;;;8463304;28;20403;-74
2021/12/06 21:37:47;;;;;;;58.60;20.75;;;;;;;;;;8463209;28;20048;-75
2021/12/06 21:41:50;;;;;;;65.18;22.92;;;;;;;;;;8467152;28;20056;-76
2021/12/06 21:45:55;;;;;;;68.72;25.25;;;;;;;;;;8469547;28;20055;-75
2021/12/06 21:49:58;;;;;;;58.22;21.40;;;;;;;;;;8469373;28;20043;-75
2021/12/06 21:54:01;;;;;;;60.35;21.80;;;;;;;;;;8469244;28;20516;-76
2021/12/06 21:58:05;;;;;;;137.07;50.28;;;;;;;;;;8469155;28;20039;-74
2021/12/06 22:02:10;;;;;;;57.38;23.13;;;;;;;;;;8468943;28;20055;-76
2021/12/06 22:06:13;;;;;;;65.85;23.10;;;;;;;;;;8469276;28;20054;-74
2021/12/06 22:10:19;;;;;;;54.70;21.00;;;;;;;;;;8469120;28;20054;-74
2021/12/06 22:14:24;;;;;;;81.55;27.80;;;;;;;;;;8468645;28;20067;-74
2021/12/06 22:18:30;;;;;;;60.80;22.17;;;;;;;;;;8468484;28;20044;-75
2021/12/06 22:22:33;;;;;;;61.10;23.83;;;;;;;;;;8468528;28;20048;-75
2021/12/06 22:26:37;;;;;;;66.45;23.40;;;;;;;;;;8468745;28;20051;-76
2021/12/06 22:30:40;;;;;;;43.38;17.48;;;;;;;;;;8468156;28;20449;-75
2021/12/06 22:34:44;;;;;;;51.95;19.90;;;;;;;;;;8467957;28;20444;-74
2021/12/06 22:38:47;;;;;;;53.60;18.75;;;;;;;;;;8468428;28;20487;-74
2021/12/06 22:42:51;;;;;;;57.78;21.75;;;;;;;;;;8467636;28;20392;-76
2021/12/06 22:46:54;;;;;;;58.92;21.55;;;;;;;;;;8467576;28;20054;-75
2021/12/06 22:51:00;;;;;;;63.60;22.00;;;;;;;;;;8466876;28;20104;-75
2021/12/06 22:55:04;;;;;;;43.05;18.05;;;;;;;;;;8468236;28;20062;-76
2021/12/06 22:59:07;;;;;;;48.92;18.13;;;;;;;;;;8467149;28;20088;-74
2021/12/06 23:03:12;;;;;;;50.55;18.52;;;;;;;;;;8467023;28;20048;-75
2021/12/06 23:07:17;;;;;;;43.28;17.95;;;;;;;;;;8467443;28;20044;-73
2021/12/06 23:11:20;;;;;;;59.00;22.55;;;;;;;;;;8466618;28;20060;-75
2021/12/06 23:15:27;;;;;;;64.18;24.50;;;;;;;;;;8467163;28;20047;-73
2021/12/06 23:19:30;;;;;;;55.03;21.42;;;;;;;;;;8466516;28;20071;-77
2021/12/06 23:23:35;;;;;;;61.00;24.42;;;;;;;;;;8466306;28;20051;-77
2021/12/06 23:27:41;;;;;;;67.75;23.70;;;;;;;;;;8466674;28;20479;-75
2021/12/06 23:31:44;;;;;;;45.67;16.80;;;;;;;;;;8466005;28;20043;-77
2021/12/06 23:35:49;;;;;;;41.75;17.58;;;;;;;;;;8466026;28;20096;-75
2021/12/06 23:40:01;;;;;;;53.90;19.75;;;;;;;;;;8465646;28;20055;-76
2021/12/06 23:48:25;;;;;;;54.40;20.60;;;;;;;;;;8465594;28;20428;-75
2021/12/06 23:52:31;;;;;;;64.15;23.33;;;;;;;;;;8465437;28;20048;-76